sensor_id;sensor_type;location;lat;lon;timestamp;pressure;altitude;pressure_sealevel;temperature;humidity
85768;BME280;76705;49.006;12.078;2024-03-08T00:00:36;97669.63;;;19.01;43.44
85768;BME280;76705;49.006;12.078;2024-03-08T00:03:15;97667.53;;;19.03;43.33
85768;BME280;76705;49.006;12.078;2024-03-08T00:05:54;97660.78;;;19.00;43.35
85768;BME280;76705;49.006;12.078;2024-03-08T00:08:32;97661.03;;;18.99;42.93
85768;BME280;76705;49.006;12.078;2024-03-08T00:11:11;97653.22;;;18.97;43.06
85768;BME280;76705;49.006;12.078;2024-03-08T00:13:50;97655.69;;;18.99;43.18
85768;BME280;76705;49.006;12.078;2024-03-08T00:16:28;97654.03;;;18.98;43.18
85768;BME280;76705;49.006;12.078;2024-03-08T00:19:06;97655.88;;;18.97;42.96
85768;BME280;76705;49.006;12.078;2024-03-08T00:21:44;97650.31;;;18.99;42.81
85768;BME280;76705;49.006;12.078;2024-03-08T00:24:22;97643.59;;;18.96;43.09
85768;BME280;76705;49.006;12.078;2024-03-08T00:27:03;97645.19;;;18.97;43.18
85768;BME280;76705;49.006;12.078;2024-03-08T00:29:44;97646.25;;;18.96;43.01
85768;BME280;76705;49.006;12.078;2024-03-08T00:32:23;97647.66;;;18.99;43.45
85768;BME280;76705;49.006;12.078;2024-03-08T00:35:05;97642.97;;;18.94;42.70
85768;BME280;76705;49.006;12.078;2024-03-08T00:37:45;97640.31;;;18.94;43.06
85768;BME280;76705;49.006;12.078;2024-03-08T00:40:25;97644.38;;;18.97;42.62
85768;BME280;76705;49.006;12.078;2024-03-08T00:43:03;97641.38;;;18.93;43.52
85768;BME280;76705;49.006;12.078;2024-03-08T00:45:43;97630.44;;;18.95;43.31
85768;BME280;76705;49.006;12.078;2024-03-08T00:48:21;97632.28;;;18.94;43.64
85768;BME280;76705;49.006;12.078;2024-03-08T00:50:59;97638.69;;;18.93;43.23
85768;BME280;76705;49.006;12.078;2024-03-08T00:53:37;97629.03;;;18.92;43.02
85768;BME280;76705;49.006;12.078;2024-03-08T00:56:16;97635.41;;;18.91;42.73
85768;BME280;76705;49.006;12.078;2024-03-08T00:58:54;97619.63;;;18.90;43.18
85768;BME280;76705;49.006;12.078;2024-03-08T01:01:33;97626.34;;;18.92;43.24
85768;BME280;76705;49.006;12.078;2024-03-08T01:04:11;97618.53;;;18.91;43.34
85768;BME280;76705;49.006;12.078;2024-03-08T01:06:49;97615.41;;;18.94;43.26
85768;BME280;76705;49.006;12.078;2024-03-08T01:09:27;97614.03;;;18.91;42.94
85768;BME280;76705;49.006;12.078;2024-03-08T01:12:05;97602.75;;;18.89;42.60
85768;BME280;76705;49.006;12.078;2024-03-08T01:14:45;97606.25;;;18.90;42.80
85768;BME280;76705;49.006;12.078;2024-03-08T01:17:24;97601.09;;;18.88;43.39
85768;BME280;76705;49.006;12.078;2024-03-08T01:20:02;97599.25;;;18.89;43.28
85768;BME280;76705;49.006;12.078;2024-03-08T01:22:41;97593.09;;;18.88;42.91
85768;BME280;76705;49.006;12.078;2024-03-08T01:25:19;97590.66;;;18.87;42.68
85768;BME280;76705;49.006;12.078;2024-03-08T01:27:57;97585.88;;;18.89;42.88
85768;BME280;76705;49.006;12.078;2024-03-08T01:30:35;97591.47;;;18.87;43.44
85768;BME280;76705;49.006;12.078;2024-03-08T01:33:16;97588.34;;;18.90;43.40
85768;BME280;76705;49.006;12.078;2024-03-08T01:35:55;97584.84;;;18.90;43.23
85768;BME280;76705;49.006;12.078;2024-03-08T01:38:33;97576.00;;;18.89;43.23
85768;BME280;76705;49.006;12.078;2024-03-08T01:41:11;97574.63;;;18.87;42.55
85768;BME280;76705;49.006;12.078;2024-03-08T01:43:51;97568.44;;;18.86;43.06
85768;BME280;76705;49.006;12.078;2024-03-08T01:46:31;97566.59;;;18.87;43.12
85768;BME280;76705;49.006;12.078;2024-03-08T01:49:11;97566.59;;;18.87;42.92
85768;BME280;76705;49.006;12.078;2024-03-08T01:51:51;97560.19;;;18.88;43.11
85768;BME280;76705;49.006;12.078;2024-03-08T01:54:29;97558.31;;;18.88;43.05
85768;BME280;76705;49.006;12.078;2024-03-08T01:57:08;97554.25;;;18.86;43.27
85768;BME280;76705;49.006;12.078;2024-03-08T01:59:46;97553.44;;;18.85;42.99
85768;BME280;76705;49.006;12.078;2024-03-08T02:02:25;97553.44;;;18.85;43.46
85768;BME280;76705;49.006;12.078;2024-03-08T02:05:06;97549.94;;;18.85;43.03
85768;BME280;76705;49.006;12.078;2024-03-08T02:07:44;97547.28;;;18.85;42.67
85768;BME280;76705;49.006;12.078;2024-03-08T02:10:23;97551.59;;;18.86;43.12
85768;BME280;76705;49.006;12.078;2024-03-08T02:13:02;97548.91;;;18.86;42.95
85768;BME280;76705;49.006;12.078;2024-03-08T02:15:50;97542.16;;;18.83;42.32
85768;BME280;76705;49.006;12.078;2024-03-08T02:18:29;97545.66;;;18.84;42.81
85768;BME280;76705;49.006;12.078;2024-03-08T02:21:09;97541.13;;;18.84;42.48
85768;BME280;76705;49.006;12.078;2024-03-08T02:23:47;97541.34;;;18.83;43.02
85768;BME280;76705;49.006;12.078;2024-03-08T02:26:25;97532.28;;;18.84;43.10
85768;BME280;76705;49.006;12.078;2024-03-08T02:29:03;97530.44;;;18.84;42.23
85768;BME280;76705;49.006;12.078;2024-03-08T02:31:42;97530.91;;;18.81;42.42
85768;BME280;76705;49.006;12.078;2024-03-08T02:34:20;97522.63;;;18.83;42.27
85768;BME280;76705;49.006;12.078;2024-03-08T02:37:01;97514.03;;;18.81;43.09
85768;BME280;76705;49.006;12.078;2024-03-08T02:39:39;97519.16;;;18.82;42.97
85768;BME280;76705;49.006;12.078;2024-03-08T02:42:17;97506.84;;;18.81;42.63
85768;BME280;76705;49.006;12.078;2024-03-08T02:44:55;97509.72;;;18.80;42.90
85768;BME280;76705;49.006;12.078;2024-03-08T02:47:33;97510.56;;;18.80;42.81
85768;BME280;76705;49.006;12.078;2024-03-08T02:50:11;97514.84;;;18.81;42.59
85768;BME280;76705;49.006;12.078;2024-03-08T02:52:51;97513.78;;;18.82;42.39
85768;BME280;76705;49.006;12.078;2024-03-08T02:55:29;97513.22;;;18.80;41.98
85768;BME280;76705;49.006;12.078;2024-03-08T02:58:08;97514.25;;;18.79;42.67
85768;BME280;76705;49.006;12.078;2024-03-08T03:00:49;97522.88;;;18.81;42.28
85768;BME280;76705;49.006;12.078;2024-03-08T03:03:28;97515.06;;;18.80;42.23
85768;BME280;76705;49.006;12.078;2024-03-08T03:06:06;97516.72;;;18.81;42.63
85768;BME280;76705;49.006;12.078;2024-03-08T03:08:46;97518.56;;;18.80;42.50
85768;BME280;76705;49.006;12.078;2024-03-08T03:11:24;97506.25;;;18.79;42.88
85768;BME280;76705;49.006;12.078;2024-03-08T03:14:02;97515.06;;;18.80;42.58
85768;BME280;76705;49.006;12.078;2024-03-08T03:16:40;97510.75;;;18.79;42.28
85768;BME280;76705;49.006;12.078;2024-03-08T03:19:19;97507.31;;;18.78;42.76
85768;BME280;76705;49.006;12.078;2024-03-08T03:21:58;97502.75;;;18.79;42.71
85768;BME280;76705;49.006;12.078;2024-03-08T03:24:37;97499.50;;;18.77;42.86
85768;BME280;76705;49.006;12.078;2024-03-08T03:27:16;97503.81;;;18.78;42.46
85768;BME280;76705;49.006;12.078;2024-03-08T03:29:54;97502.16;;;18.77;42.83
85768;BME280;76705;49.006;12.078;2024-03-08T03:32:33;97498.69;;;18.76;42.29
85768;BME280;76705;49.006;12.078;2024-03-08T03:35:14;97502.75;;;18.79;42.45
85768;BME280;76705;49.006;12.078;2024-03-08T03:37:55;97493.13;;;18.78;42.79
85768;BME280;76705;49.006;12.078;2024-03-08T03:40:41;97500.31;;;18.77;42.41
85768;BME280;76705;49.006;12.078;2024-03-08T03:43:19;97493.13;;;18.78;42.01
85768;BME280;76705;49.006;12.078;2024-03-08T03:45:57;97491.25;;;18.78;42.22
85768;BME280;76705;49.006;12.078;2024-03-08T03:48:35;97493.13;;;18.78;41.79
85768;BME280;76705;49.006;12.078;2024-03-08T03:51:13;97483.47;;;18.77;41.87
85768;BME280;76705;49.006;12.078;2024-03-08T03:53:53;97478.69;;;18.79;42.81
85768;BME280;76705;49.006;12.078;2024-03-08T03:56:32;97485.09;;;18.78;41.84
85768;BME280;76705;49.006;12.078;2024-03-08T03:59:10;97483.25;;;18.78;41.83
85768;BME280;76705;49.006;12.078;2024-03-08T04:01:49;97486.69;;;18.79;42.60
85768;BME280;76705;49.006;12.078;2024-03-08T04:04:27;97469.88;;;18.78;42.15
85768;BME280;76705;49.006;12.078;2024-03-08T04:07:07;97470.44;;;18.80;42.62
85768;BME280;76705;49.006;12.078;2024-03-08T04:09:45;97472.09;;;18.81;42.19
85768;BME280;76705;49.006;12.078;2024-03-08T04:12:24;97474.97;;;18.80;41.83
85768;BME280;76705;49.006;12.078;2024-03-08T04:15:03;97476.38;;;18.82;42.24
85768;BME280;76705;49.006;12.078;2024-03-08T04:17:41;97476.38;;;18.82;41.72
85768;BME280;76705;49.006;12.078;2024-03-08T04:20:19;97472.09;;;18.81;42.38
85768;BME280;76705;49.006;12.078;2024-03-08T04:22:57;97465.66;;;18.82;42.27
85768;BME280;76705;49.006;12.078;2024-03-08T04:25:35;97471.00;;;18.82;42.19
85768;BME280;76705;49.006;12.078;2024-03-08T04:28:14;97466.47;;;18.83;42.34
85768;BME280;76705;49.006;12.078;2024-03-08T04:30:53;97460.91;;;18.84;41.71
85768;BME280;76705;49.006;12.078;2024-03-08T04:33:31;97463.59;;;18.84;41.66
85768;BME280;76705;49.006;12.078;2024-03-08T04:36:09;97465.44;;;18.84;41.71
85768;BME280;76705;49.006;12.078;2024-03-08T04:38:51;97462.78;;;18.84;42.24
85768;BME280;76705;49.006;12.078;2024-03-08T04:41:29;97459.03;;;18.85;41.70
85768;BME280;76705;49.006;12.078;2024-03-08T04:44:09;97462.53;;;18.85;41.82
85768;BME280;76705;49.006;12.078;2024-03-08T04:46:48;97457.19;;;18.85;41.85
85768;BME280;76705;49.006;12.078;2024-03-08T04:49:27;97454.84;;;18.89;42.38
85768;BME280;76705;49.006;12.078;2024-03-08T04:52:06;97452.44;;;18.87;41.79
85768;BME280;76705;49.006;12.078;2024-03-08T04:54:44;97454.28;;;18.87;41.83
85768;BME280;76705;49.006;12.078;2024-03-08T04:57:23;97451.00;;;18.85;41.52
85768;BME280;76705;49.006;12.078;2024-03-08T05:00:02;97455.09;;;18.87;42.44
85768;BME280;76705;49.006;12.078;2024-03-08T05:02:42;97453.47;;;18.86;42.52
85768;BME280;76705;49.006;12.078;2024-03-08T05:05:20;97453.47;;;18.86;41.73
85768;BME280;76705;49.006;12.078;2024-03-08T05:07:58;97446.25;;;18.87;41.61
85768;BME280;76705;49.006;12.078;2024-03-08T05:10:36;97455.09;;;18.87;41.65
85768;BME280;76705;49.006;12.078;2024-03-08T05:13:14;97445.44;;;18.86;41.37
85768;BME280;76705;49.006;12.078;2024-03-08T05:15:54;97452.44;;;18.87;41.61
85768;BME280;76705;49.006;12.078;2024-03-08T05:18:32;97441.72;;;18.87;41.49
85768;BME280;76705;49.006;12.078;2024-03-08T05:21:10;97446.00;;;18.88;42.03
85768;BME280;76705;49.006;12.078;2024-03-08T05:23:48;97447.09;;;18.87;42.38
85768;BME280;76705;49.006;12.078;2024-03-08T05:26:28;97443.59;;;18.87;42.06
85768;BME280;76705;49.006;12.078;2024-03-08T05:29:06;97448.69;;;18.88;41.96
85768;BME280;76705;49.006;12.078;2024-03-08T05:31:47;97444.16;;;18.89;42.10
85768;BME280;76705;49.006;12.078;2024-03-08T05:34:25;97436.13;;;18.89;42.15
85768;BME280;76705;49.006;12.078;2024-03-08T05:37:06;97438.00;;;18.88;41.48
85768;BME280;76705;49.006;12.078;2024-03-08T05:39:45;97444.16;;;18.89;41.46
85768;BME280;76705;49.006;12.078;2024-03-08T05:42:23;97429.75;;;18.90;41.76
85768;BME280;76705;49.006;12.078;2024-03-08T05:45:01;97440.66;;;19.12;42.59
85768;BME280;76705;49.006;12.078;2024-03-08T05:47:40;97440.03;;;19.21;41.67
85768;BME280;76705;49.006;12.078;2024-03-08T05:50:19;97433.53;;;19.17;42.38
85768;BME280;76705;49.006;12.078;2024-03-08T05:52:57;97435.84;;;19.25;41.36
85768;BME280;76705;49.006;12.078;2024-03-08T05:55:35;97435.38;;;19.28;41.67
85768;BME280;76705;49.006;12.078;2024-03-08T05:58:12;97437.81;;;19.30;41.38
85768;BME280;76705;49.006;12.078;2024-03-08T06:00:50;97430.34;;;19.32;41.74
85768;BME280;76705;49.006;12.078;2024-03-08T06:03:30;97432.56;;;19.35;41.25
85768;BME280;76705;49.006;12.078;2024-03-08T06:06:08;97424.06;;;19.38;41.22
85768;BME280;76705;49.006;12.078;2024-03-08T06:08:46;97424.44;;;19.41;41.15
85768;BME280;76705;49.006;12.078;2024-03-08T06:11:26;97427.66;;;19.43;41.32
85768;BME280;76705;49.006;12.078;2024-03-08T06:14:05;97431.16;;;19.44;41.71
85768;BME280;76705;49.006;12.078;2024-03-08T06:16:43;97421.75;;;19.41;41.14
85768;BME280;76705;49.006;12.078;2024-03-08T06:19:22;97428.97;;;19.41;41.52
85768;BME280;76705;49.006;12.078;2024-03-08T06:22:01;97429.03;;;19.46;41.80
85768;BME280;76705;49.006;12.078;2024-03-08T06:24:43;97426.50;;;19.51;41.85
85768;BME280;76705;49.006;12.078;2024-03-08T06:27:21;97424.94;;;19.55;41.78
85768;BME280;76705;49.006;12.078;2024-03-08T06:29:58;97432.97;;;19.55;41.56
85768;BME280;76705;49.006;12.078;2024-03-08T06:32:37;97431.13;;;19.55;42.25
85768;BME280;76705;49.006;12.078;2024-03-08T06:35:16;97426.00;;;19.54;42.36
85768;BME280;76705;49.006;12.078;2024-03-08T06:37:54;97426.84;;;19.54;41.61
85768;BME280;76705;49.006;12.078;2024-03-08T06:40:34;97422.59;;;19.58;42.48
85768;BME280;76705;49.006;12.078;2024-03-08T06:43:12;97426.44;;;19.62;41.70
85768;BME280;76705;49.006;12.078;2024-03-08T06:45:53;97426.44;;;19.62;42.11
85768;BME280;76705;49.006;12.078;2024-03-08T06:48:31;97424.47;;;19.58;41.85
85768;BME280;76705;49.006;12.078;2024-03-08T06:51:11;97421.78;;;19.58;42.26
85768;BME280;76705;49.006;12.078;2024-03-08T06:53:49;97430.16;;;19.61;42.78
85768;BME280;76705;49.006;12.078;2024-03-08T06:56:27;97422.47;;;19.65;42.08
85768;BME280;76705;49.006;12.078;2024-03-08T06:59:05;97424.66;;;19.68;41.60
85768;BME280;76705;49.006;12.078;2024-03-08T07:01:44;97423.38;;;19.71;42.04
85768;BME280;76705;49.006;12.078;2024-03-08T07:04:22;97411.34;;;19.73;42.38
85768;BME280;76705;49.006;12.078;2024-03-08T07:07:05;97412.50;;;19.77;41.71
85768;BME280;76705;49.006;12.078;2024-03-08T07:09:47;97409.13;;;19.82;42.06
85768;BME280;76705;49.006;12.078;2024-03-08T07:12:26;97411.81;;;19.82;42.55
85768;BME280;76705;49.006;12.078;2024-03-08T07:15:05;97410.97;;;19.81;42.40
85768;BME280;76705;49.006;12.078;2024-03-08T07:17:43;97403.78;;;19.82;42.44
85768;BME280;76705;49.006;12.078;2024-03-08T07:20:22;97407.50;;;19.81;43.02
85768;BME280;76705;49.006;12.078;2024-03-08T07:23:01;97407.00;;;19.84;42.96
85768;BME280;76705;49.006;12.078;2024-03-08T07:25:39;97401.16;;;19.87;42.81
85768;BME280;76705;49.006;12.078;2024-03-08T07:28:17;97400.13;;;19.88;42.28
85768;BME280;76705;49.006;12.078;2024-03-08T07:30:57;97396.16;;;19.90;42.71
85768;BME280;76705;49.006;12.078;2024-03-08T07:33:45;97398.34;;;19.93;42.01
85768;BME280;76705;49.006;12.078;2024-03-08T07:36:23;97402.88;;;19.93;42.60
85768;BME280;76705;49.006;12.078;2024-03-08T07:39:02;97408.56;;;19.96;42.71
85768;BME280;76705;49.006;12.078;2024-03-08T07:41:43;97403.78;;;19.98;42.31
85768;BME280;76705;49.006;12.078;2024-03-08T07:44:21;97407.94;;;20.06;42.75
85768;BME280;76705;49.006;12.078;2024-03-08T07:46:58;97401.28;;;20.08;41.92
85768;BME280;76705;49.006;12.078;2024-03-08T07:49:37;97404.03;;;20.13;43.03
85768;BME280;76705;49.006;12.078;2024-03-08T07:52:15;97405.16;;;20.17;42.89
85768;BME280;76705;49.006;12.078;2024-03-08T07:54:57;97404.44;;;20.22;42.65
85768;BME280;76705;49.006;12.078;2024-03-08T07:57:35;97396.38;;;20.22;43.00
85768;BME280;76705;49.006;12.078;2024-03-08T08:00:16;97394.72;;;20.33;42.31
85768;BME280;76705;49.006;12.078;2024-03-08T08:02:55;97392.13;;;20.38;42.39
85768;BME280;76705;49.006;12.078;2024-03-08T08:05:33;97392.50;;;20.46;42.43
85768;BME280;76705;49.006;12.078;2024-03-08T08:08:13;97393.16;;;20.53;42.45
85768;BME280;76705;49.006;12.078;2024-03-08T08:10:53;97391.34;;;20.59;42.13
85768;BME280;76705;49.006;12.078;2024-03-08T08:13:31;97388.66;;;20.59;42.25
85768;BME280;76705;49.006;12.078;2024-03-08T08:16:10;97390.31;;;20.60;42.33
85768;BME280;76705;49.006;12.078;2024-03-08T08:18:51;97390.63;;;20.63;41.99
85768;BME280;76705;49.006;12.078;2024-03-08T08:21:31;97385.81;;;20.65;42.33
85768;BME280;76705;49.006;12.078;2024-03-08T08:24:09;97381.81;;;20.68;41.94
85768;BME280;76705;49.006;12.078;2024-03-08T08:26:50;97384.59;;;20.73;41.99
85768;BME280;76705;49.006;12.078;2024-03-08T08:29:28;97380.59;;;20.76;41.87
85768;BME280;76705;49.006;12.078;2024-03-08T08:32:06;97373.66;;;20.80;41.71
85768;BME280;76705;49.006;12.078;2024-03-08T08:34:45;97373.75;;;20.85;42.05
85768;BME280;76705;49.006;12.078;2024-03-08T08:37:23;97371.63;;;20.87;41.98
85768;BME280;76705;49.006;12.078;2024-03-08T08:40:01;97366.31;;;20.92;41.44
85768;BME280;76705;49.006;12.078;2024-03-08T08:42:45;97359.94;;;20.98;41.93
85768;BME280;76705;49.006;12.078;2024-03-08T08:45:23;97367.25;;;21.02;41.22
85768;BME280;76705;49.006;12.078;2024-03-08T08:48:02;97351.97;;;21.03;41.55
85768;BME280;76705;49.006;12.078;2024-03-08T08:50:40;97356.03;;;21.05;41.08
85768;BME280;76705;49.006;12.078;2024-03-08T08:53:19;97351.31;;;21.12;41.02
85768;BME280;76705;49.006;12.078;2024-03-08T08:55:57;97353.78;;;21.19;41.00
85768;BME280;76705;49.006;12.078;2024-03-08T08:58:37;97335.59;;;21.21;40.90
85768;BME280;76705;49.006;12.078;2024-03-08T09:01:15;97341.81;;;21.27;40.82
85768;BME280;76705;49.006;12.078;2024-03-08T09:03:56;97345.13;;;21.34;40.92
85768;BME280;76705;49.006;12.078;2024-03-08T09:06:35;97340.63;;;21.39;40.67
85768;BME280;76705;49.006;12.078;2024-03-08T09:09:13;97332.59;;;21.44;40.97
85768;BME280;76705;49.006;12.078;2024-03-08T09:11:51;97333.44;;;21.50;40.69
85768;BME280;76705;49.006;12.078;2024-03-08T09:14:33;97338.91;;;21.55;40.95
85768;BME280;76705;49.006;12.078;2024-03-08T09:17:11;97335.19;;;21.61;40.84
85768;BME280;76705;49.006;12.078;2024-03-08T09:19:50;97335.47;;;21.64;40.65
85768;BME280;76705;49.006;12.078;2024-03-08T09:22:28;97322.03;;;21.64;40.75
85768;BME280;76705;49.006;12.078;2024-03-08T09:25:07;97321.53;;;21.67;40.82
85768;BME280;76705;49.006;12.078;2024-03-08T09:27:47;97325.03;;;21.68;41.15
85768;BME280;76705;49.006;12.078;2024-03-08T09:30:27;97314.59;;;21.71;40.87
85768;BME280;76705;49.006;12.078;2024-03-08T09:33:05;97312.94;;;21.65;41.11
85768;BME280;76705;49.006;12.078;2024-03-08T09:35:43;97315.38;;;21.67;40.92
85768;BME280;76705;49.006;12.078;2024-03-08T09:38:22;97313.53;;;21.72;40.94
85768;BME280;76705;49.006;12.078;2024-03-08T09:41:00;97304.41;;;21.73;40.92
85768;BME280;76705;49.006;12.078;2024-03-08T09:43:39;97300.13;;;21.77;40.77
85768;BME280;76705;49.006;12.078;2024-03-08T09:46:18;97303.38;;;21.79;40.69
85768;BME280;76705;49.006;12.078;2024-03-08T09:48:57;97303.44;;;21.85;40.79
85768;BME280;76705;49.006;12.078;2024-03-08T09:51:36;97296.72;;;21.87;40.79
85768;BME280;76705;49.006;12.078;2024-03-08T09:54:15;97296.50;;;21.89;40.94
85768;BME280;76705;49.006;12.078;2024-03-08T09:56:54;97287.38;;;21.90;40.66
85768;BME280;76705;49.006;12.078;2024-03-08T09:59:33;97290.53;;;21.87;40.80
85768;BME280;76705;49.006;12.078;2024-03-08T10:02:16;97290.13;;;21.68;39.98
85768;BME280;76705;49.006;12.078;2024-03-08T10:04:57;97287.09;;;21.59;38.90
85768;BME280;76705;49.006;12.078;2024-03-08T10:07:35;97287.72;;;21.71;39.06
85768;BME280;76705;49.006;12.078;2024-03-08T10:10:13;97285.13;;;21.82;39.33
85768;BME280;76705;49.006;12.078;2024-03-08T10:12:51;97277.91;;;21.87;39.30
85768;BME280;76705;49.006;12.078;2024-03-08T10:15:30;97291.16;;;21.94;38.99
85768;BME280;76705;49.006;12.078;2024-03-08T10:18:12;97277.91;;;21.87;39.16
85768;BME280;76705;49.006;12.078;2024-03-08T10:21:04;97282.28;;;21.93;39.02
85768;BME280;76705;49.006;12.078;2024-03-08T10:23:42;97269.03;;;21.82;38.75
85768;BME280;76705;49.006;12.078;2024-03-08T10:26:23;97266.34;;;21.87;38.94
85768;BME280;76705;49.006;12.078;2024-03-08T10:29:03;97269.91;;;21.92;38.86
85768;BME280;76705;49.006;12.078;2024-03-08T10:31:43;97266.72;;;21.95;38.82
85768;BME280;76705;49.006;12.078;2024-03-08T10:34:22;97271.03;;;21.96;39.32
85768;BME280;76705;49.006;12.078;2024-03-08T10:37:03;97261.25;;;21.85;38.68
85768;BME280;76705;49.006;12.078;2024-03-08T10:39:42;97255.63;;;21.87;38.81
85768;BME280;76705;49.006;12.078;2024-03-08T10:42:28;97257.38;;;21.71;38.27
85768;BME280;76705;49.006;12.078;2024-03-08T10:45:15;97260.34;;;21.69;37.99
85768;BME280;76705;49.006;12.078;2024-03-08T10:48:05;97256.34;;;21.77;38.16
85768;BME280;76705;49.006;12.078;2024-03-08T10:50:48;97252.09;;;21.81;38.15
85768;BME280;76705;49.006;12.078;2024-03-08T10:53:30;97248.63;;;21.86;38.45
85768;BME280;76705;49.006;12.078;2024-03-08T10:56:08;97255.88;;;21.85;38.47
85768;BME280;76705;49.006;12.078;2024-03-08T10:58:47;97248.63;;;21.86;38.54
85768;BME280;76705;49.006;12.078;2024-03-08T11:01:26;97239.28;;;21.88;38.52
85768;BME280;76705;49.006;12.078;2024-03-08T11:04:04;97243.25;;;21.86;38.59
85768;BME280;76705;49.006;12.078;2024-03-08T11:06:45;97230.38;;;21.88;38.71
85768;BME280;76705;49.006;12.078;2024-03-08T11:09:29;97223.94;;;21.89;38.86
85768;BME280;76705;49.006;12.078;2024-03-08T11:12:20;97222.06;;;21.89;39.04
85768;BME280;76705;49.006;12.078;2024-03-08T11:15:00;97218.31;;;21.90;39.03
85768;BME280;76705;49.006;12.078;2024-03-08T11:17:47;97212.63;;;21.87;39.19
85768;BME280;76705;49.006;12.078;2024-03-08T11:20:25;97204.25;;;21.78;39.51
85768;BME280;76705;49.006;12.078;2024-03-08T11:23:06;97200.44;;;21.74;39.03
85768;BME280;76705;49.006;12.078;2024-03-08T11:25:45;97202.31;;;21.73;39.01
85768;BME280;76705;49.006;12.078;2024-03-08T11:28:24;97196.44;;;21.76;39.12
85768;BME280;76705;49.006;12.078;2024-03-08T11:31:23;97184.66;;;21.83;38.98
85768;BME280;76705;49.006;12.078;2024-03-08T11:34:02;97182.47;;;21.79;39.47
85768;BME280;76705;49.006;12.078;2024-03-08T11:36:41;97176.88;;;21.81;39.22
85768;BME280;76705;49.006;12.078;2024-03-08T11:39:21;97182.25;;;21.81;39.61
85768;BME280;76705;49.006;12.078;2024-03-08T11:42:00;97170.91;;;21.74;39.55
85768;BME280;76705;49.006;12.078;2024-03-08T11:44:38;97168.75;;;21.71;39.31
85768;BME280;76705;49.006;12.078;2024-03-08T11:47:20;97170.59;;;21.70;39.52
85768;BME280;76705;49.006;12.078;2024-03-08T11:49:58;97169.81;;;21.70;39.59
85768;BME280;76705;49.006;12.078;2024-03-08T11:52:36;97168.44;;;21.67;39.48
85768;BME280;76705;49.006;12.078;2024-03-08T11:55:16;97159.03;;;21.65;39.81
85768;BME280;76705;49.006;12.078;2024-03-08T11:58:04;97149.38;;;21.64;39.87
85768;BME280;76705;49.006;12.078;2024-03-08T12:00:42;97151.78;;;21.65;39.73
85768;BME280;76705;49.006;12.078;2024-03-08T12:03:20;97142.63;;;21.61;40.45
85768;BME280;76705;49.006;12.078;2024-03-08T12:05:58;97126.47;;;21.56;40.78
85768;BME280;76705;49.006;12.078;2024-03-08T12:08:37;97131.56;;;21.53;40.95
85768;BME280;76705;49.006;12.078;2024-03-08T12:11:17;97119.75;;;21.49;40.97
85768;BME280;76705;49.006;12.078;2024-03-08T12:13:56;97122.13;;;21.45;41.41
85768;BME280;76705;49.006;12.078;2024-03-08T12:16:36;97112.97;;;21.41;41.27
85768;BME280;76705;49.006;12.078;2024-03-08T12:19:14;97115.63;;;21.36;41.45
85768;BME280;76705;49.006;12.078;2024-03-08T12:21:53;97119.38;;;21.35;41.56
85768;BME280;76705;49.006;12.078;2024-03-08T12:24:32;97110.78;;;21.33;41.52
85768;BME280;76705;49.006;12.078;2024-03-08T12:27:20;97108.84;;;21.29;41.30
85768;BME280;76705;49.006;12.078;2024-03-08T12:29:58;97108.53;;;21.25;41.43
85768;BME280;76705;49.006;12.078;2024-03-08T12:32:36;97099.41;;;21.21;41.22
85768;BME280;76705;49.006;12.078;2024-03-08T12:35:14;97091.31;;;21.16;41.75
85768;BME280;76705;49.006;12.078;2024-03-08T12:37:53;97081.09;;;21.13;41.45
85768;BME280;76705;49.006;12.078;2024-03-08T12:40:32;97089.91;;;21.08;41.68
85768;BME280;76705;49.006;12.078;2024-03-08T12:43:13;97082.88;;;21.02;41.79
85768;BME280;76705;49.006;12.078;2024-03-08T12:45:53;97071.03;;;20.98;41.78
85768;BME280;76705;49.006;12.078;2024-03-08T12:48:34;97076.09;;;20.95;42.16
85768;BME280;76705;49.006;12.078;2024-03-08T12:51:12;97072.06;;;20.92;41.98
85768;BME280;76705;49.006;12.078;2024-03-08T12:53:50;97065.59;;;20.88;42.39
85768;BME280;76705;49.006;12.078;2024-03-08T12:56:35;97066.91;;;20.86;42.47
85768;BME280;76705;49.006;12.078;2024-03-08T12:59:16;97070.66;;;20.85;42.69
85768;BME280;76705;49.006;12.078;2024-03-08T13:01:54;97058.59;;;20.82;42.46
85768;BME280;76705;49.006;12.078;2024-03-08T13:04:33;97059.88;;;20.80;42.25
85768;BME280;76705;49.006;12.078;2024-03-08T13:07:10;97049.16;;;20.80;42.20
85768;BME280;76705;49.006;12.078;2024-03-08T13:09:49;97057.69;;;20.77;42.46
85768;BME280;76705;49.006;12.078;2024-03-08T13:12:27;97049.66;;;20.77;42.46
85768;BME280;76705;49.006;12.078;2024-03-08T13:15:06;97044.81;;;20.73;42.61
85768;BME280;76705;49.006;12.078;2024-03-08T13:17:46;97044.25;;;20.71;42.66
85768;BME280;76705;49.006;12.078;2024-03-08T13:20:26;97045.59;;;20.69;42.56
85768;BME280;76705;49.006;12.078;2024-03-08T13:23:06;97036.19;;;20.66;42.86
85768;BME280;76705;49.006;12.078;2024-03-08T13:25:46;97037.25;;;20.65;42.80
85768;BME280;76705;49.006;12.078;2024-03-08T13:28:27;97042.31;;;20.62;42.86
85768;BME280;76705;49.006;12.078;2024-03-08T13:31:09;97040.94;;;20.59;42.41
85768;BME280;76705;49.006;12.078;2024-03-08T13:33:50;97037.44;;;20.59;42.74
85768;BME280;76705;49.006;12.078;2024-03-08T13:36:29;97041.44;;;20.56;42.61
85768;BME280;76705;49.006;12.078;2024-03-08T13:39:16;97024.25;;;20.52;42.27
85768;BME280;76705;49.006;12.078;2024-03-08T13:41:55;97032.81;;;20.49;42.16
85768;BME280;76705;49.006;12.078;2024-03-08T13:44:32;97028.22;;;20.45;42.31
85768;BME280;76705;49.006;12.078;2024-03-08T13:47:12;97027.91;;;20.41;42.58
85768;BME280;76705;49.006;12.078;2024-03-08T13:49:51;97025.47;;;20.40;42.86
85768;BME280;76705;49.006;12.078;2024-03-08T13:52:29;97024.94;;;20.38;43.02